Accueil
METAR-TAF:

METAR-TAF

Aéroports :

Aéroport international d'Exeter

Exeter, Angleterre

latitude: 50-44N, longitude: 003-25W, altitude: 30 m

Observation

Le bulletin a été fait il y a 35 minutes, à 18:50 UTC
Vent 1 kt de direction variable
Température 12°C
Humidité 94%
Pression 1028 hPa
Visibilité 10 km ou plus
Quelques nuages à une hauteur de 3000 ft
Nuages fragmentés à une hauteur de 3800 ft

METAR: EGTE 191850Z VRB01KT 9999 FEW030 BKN038 12/11 Q1028

Heure: 20:25 (19:25 UTC)

Prévision

Le bulletin a été fait il y a 2 heures et 21 minutes, à 17:04 UTC
Prévision valable du 19 à 18 UTC au 20 à 03 UTC
Vent 3 kt de direction variable
Visibilité 10 km ou plus
Quelques nuages à une hauteur de 3000 ft
Evoluant progressivement
du 19 à 21 UTC au 19 à 24 UTC
Visibilité: 6000 m
Probabilité 40%
du 19 à 21 UTC au 19 à 24 UTC
Visibilité: 3000 m
brume

TAF: EGTE 191704Z 1918/2003 VRB03KT 9999 FEW030 BECMG 1921/1924 6000 PROB40 1921/1924 3000 BR

Observations et prévisions météorologiques de plus de 4000 aéroports (messages METAR et TAF).

Les stations disponibles sont représentées par des disques jaunes et rouges sur la carte.

Passer la souris dessus pour voir le nom de la station.

Cliquer dessus pour voir les observations et prévisions météorologiques.

Pour changer de carte: cliquez sur les boutons verts avec une croix noire pour zoomer, sur le bouton vert avec un tiret pour effectuer un zoom arrière, ou sur les flèches vertes pour les cartes adjacentes.


METAR-TAF: